sensor_id;sensor_type;location;lat;lon;timestamp;temperature;humidity
19898;DHT22;10111;50.814;4.572;2023-05-13T00:01:08;13.30;99.90
19898;DHT22;10111;50.814;4.572;2023-05-13T00:03:34;13.30;99.90
19898;DHT22;10111;50.814;4.572;2023-05-13T00:05:59;13.20;99.90
19898;DHT22;10111;50.814;4.572;2023-05-13T00:08:25;13.10;99.90
19898;DHT22;10111;50.814;4.572;2023-05-13T00:10:51;13.10;99.90
19898;DHT22;10111;50.814;4.572;2023-05-13T00:13:17;13.00;99.90
19898;DHT22;10111;50.814;4.572;2023-05-13T00:15:42;13.00;99.90
19898;DHT22;10111;50.814;4.572;2023-05-13T00:18:08;12.90;99.90
19898;DHT22;10111;50.814;4.572;2023-05-13T00:20:33;12.90;99.90
19898;DHT22;10111;50.814;4.572;2023-05-13T00:22:59;12.80;99.90
19898;DHT22;10111;50.814;4.572;2023-05-13T00:25:25;12.80;99.90
19898;DHT22;10111;50.814;4.572;2023-05-13T00:27:51;12.80;99.90
19898;DHT22;10111;50.814;4.572;2023-05-13T00:30:16;12.70;99.90
19898;DHT22;10111;50.814;4.572;2023-05-13T00:32:42;12.60;99.90
19898;DHT22;10111;50.814;4.572;2023-05-13T00:35:08;12.60;99.90
19898;DHT22;10111;50.814;4.572;2023-05-13T00:37:34;12.50;99.90
19898;DHT22;10111;50.814;4.572;2023-05-13T00:40:00;12.60;99.90
19898;DHT22;10111;50.814;4.572;2023-05-13T00:42:26;12.50;99.90
19898;DHT22;10111;50.814;4.572;2023-05-13T00:44:51;12.50;99.90
19898;DHT22;10111;50.814;4.572;2023-05-13T00:47:17;12.40;99.90
19898;DHT22;10111;50.814;4.572;2023-05-13T00:49:43;12.40;99.90
19898;DHT22;10111;50.814;4.572;2023-05-13T00:52:09;12.30;99.90
19898;DHT22;10111;50.814;4.572;2023-05-13T00:54:34;12.30;99.90
19898;DHT22;10111;50.814;4.572;2023-05-13T00:57:00;12.30;99.90
19898;DHT22;10111;50.814;4.572;2023-05-13T00:59:27;12.30;99.90
19898;DHT22;10111;50.814;4.572;2023-05-13T01:02:02;12.30;99.90
19898;DHT22;10111;50.814;4.572;2023-05-13T01:04:46;12.30;99.90
19898;DHT22;10111;50.814;4.572;2023-05-13T01:07:22;12.30;99.90
19898;DHT22;10111;50.814;4.572;2023-05-13T01:10:10;12.30;99.90
19898;DHT22;10111;50.814;4.572;2023-05-13T01:12:41;12.30;99.90
19898;DHT22;10111;50.814;4.572;2023-05-13T01:15:11;12.20;99.90
19898;DHT22;10111;50.814;4.572;2023-05-13T01:20:07;12.20;99.90
19898;DHT22;10111;50.814;4.572;2023-05-13T01:22:33;12.20;99.90
19898;DHT22;10111;50.814;4.572;2023-05-13T01:24:58;12.20;99.90
19898;DHT22;10111;50.814;4.572;2023-05-13T01:27:24;12.20;99.90
19898;DHT22;10111;50.814;4.572;2023-05-13T01:29:51;12.20;99.90
19898;DHT22;10111;50.814;4.572;2023-05-13T01:32:18;12.20;99.90
19898;DHT22;10111;50.814;4.572;2023-05-13T01:34:45;12.10;99.90
19898;DHT22;10111;50.814;4.572;2023-05-13T01:37:11;12.10;99.90
19898;DHT22;10111;50.814;4.572;2023-05-13T01:39:37;12.10;99.90
19898;DHT22;10111;50.814;4.572;2023-05-13T01:42:03;12.10;99.90
19898;DHT22;10111;50.814;4.572;2023-05-13T01:44:29;12.10;99.90
19898;DHT22;10111;50.814;4.572;2023-05-13T01:46:55;12.10;99.90
19898;DHT22;10111;50.814;4.572;2023-05-13T01:49:21;12.10;99.90
19898;DHT22;10111;50.814;4.572;2023-05-13T01:51:46;12.00;99.90
19898;DHT22;10111;50.814;4.572;2023-05-13T01:54:12;12.00;99.90
19898;DHT22;10111;50.814;4.572;2023-05-13T01:56:38;12.00;99.90
19898;DHT22;10111;50.814;4.572;2023-05-13T01:59:03;11.90;99.90
19898;DHT22;10111;50.814;4.572;2023-05-13T02:01:29;11.90;99.90
19898;DHT22;10111;50.814;4.572;2023-05-13T02:03:58;11.90;99.90
19898;DHT22;10111;50.814;4.572;2023-05-13T02:06:24;11.90;99.90
19898;DHT22;10111;50.814;4.572;2023-05-13T02:08:50;11.90;99.90
19898;DHT22;10111;50.814;4.572;2023-05-13T02:11:16;11.90;99.90
19898;DHT22;10111;50.814;4.572;2023-05-13T02:13:41;11.90;99.90
19898;DHT22;10111;50.814;4.572;2023-05-13T02:16:07;11.80;99.90
19898;DHT22;10111;50.814;4.572;2023-05-13T02:18:33;11.80;99.90
19898;DHT22;10111;50.814;4.572;2023-05-13T02:20:58;11.80;99.90
19898;DHT22;10111;50.814;4.572;2023-05-13T02:23:24;11.80;99.90
19898;DHT22;10111;50.814;4.572;2023-05-13T02:25:50;11.70;99.90
19898;DHT22;10111;50.814;4.572;2023-05-13T02:28:15;11.70;99.90
19898;DHT22;10111;50.814;4.572;2023-05-13T02:30:41;11.70;99.90
19898;DHT22;10111;50.814;4.572;2023-05-13T02:33:07;11.70;99.90
19898;DHT22;10111;50.814;4.572;2023-05-13T02:35:33;11.70;99.90
19898;DHT22;10111;50.814;4.572;2023-05-13T02:37:59;11.70;99.90
19898;DHT22;10111;50.814;4.572;2023-05-13T02:40:24;11.60;99.90
19898;DHT22;10111;50.814;4.572;2023-05-13T02:42:50;11.70;99.90
19898;DHT22;10111;50.814;4.572;2023-05-13T02:45:15;11.70;99.90
19898;DHT22;10111;50.814;4.572;2023-05-13T02:47:41;11.70;99.90
19898;DHT22;10111;50.814;4.572;2023-05-13T02:50:08;11.70;99.90
19898;DHT22;10111;50.814;4.572;2023-05-13T02:52:35;11.70;99.90
19898;DHT22;10111;50.814;4.572;2023-05-13T02:55:01;11.70;99.90
19898;DHT22;10111;50.814;4.572;2023-05-13T02:57:27;11.60;99.90
19898;DHT22;10111;50.814;4.572;2023-05-13T02:59:53;11.70;99.90
19898;DHT22;10111;50.814;4.572;2023-05-13T03:02:18;11.60;99.90
19898;DHT22;10111;50.814;4.572;2023-05-13T03:04:44;11.60;99.90
19898;DHT22;10111;50.814;4.572;2023-05-13T03:07:10;11.50;99.90
19898;DHT22;10111;50.814;4.572;2023-05-13T03:09:35;11.60;99.90
19898;DHT22;10111;50.814;4.572;2023-05-13T03:12:04;11.50;99.90
19898;DHT22;10111;50.814;4.572;2023-05-13T03:14:30;11.50;99.90
19898;DHT22;10111;50.814;4.572;2023-05-13T03:16:59;11.50;99.90
19898;DHT22;10111;50.814;4.572;2023-05-13T03:19:24;11.50;99.90
19898;DHT22;10111;50.814;4.572;2023-05-13T03:21:50;11.50;99.90
19898;DHT22;10111;50.814;4.572;2023-05-13T03:24:15;11.50;99.90
19898;DHT22;10111;50.814;4.572;2023-05-13T03:26:41;11.50;99.90
19898;DHT22;10111;50.814;4.572;2023-05-13T03:29:07;11.40;99.90
19898;DHT22;10111;50.814;4.572;2023-05-13T03:31:33;11.40;99.90
19898;DHT22;10111;50.814;4.572;2023-05-13T03:33:58;11.40;99.90
19898;DHT22;10111;50.814;4.572;2023-05-13T03:36:24;11.40;99.90
19898;DHT22;10111;50.814;4.572;2023-05-13T03:38:50;11.30;99.90
19898;DHT22;10111;50.814;4.572;2023-05-13T03:41:15;11.30;99.90
19898;DHT22;10111;50.814;4.572;2023-05-13T03:43:42;11.30;99.90
19898;DHT22;10111;50.814;4.572;2023-05-13T03:46:08;11.20;99.90
19898;DHT22;10111;50.814;4.572;2023-05-13T03:48:34;11.20;99.90
19898;DHT22;10111;50.814;4.572;2023-05-13T03:51:00;11.20;99.90
19898;DHT22;10111;50.814;4.572;2023-05-13T03:53:26;11.20;99.90
19898;DHT22;10111;50.814;4.572;2023-05-13T03:55:51;11.10;99.90
19898;DHT22;10111;50.814;4.572;2023-05-13T03:58:17;11.00;99.90
19898;DHT22;10111;50.814;4.572;2023-05-13T04:00:44;11.00;99.90
19898;DHT22;10111;50.814;4.572;2023-05-13T04:03:13;11.00;99.90
19898;DHT22;10111;50.814;4.572;2023-05-13T04:05:40;11.00;99.90
19898;DHT22;10111;50.814;4.572;2023-05-13T04:08:06;11.00;99.90
19898;DHT22;10111;50.814;4.572;2023-05-13T04:10:32;11.00;99.90
19898;DHT22;10111;50.814;4.572;2023-05-13T04:12:58;11.00;99.90
19898;DHT22;10111;50.814;4.572;2023-05-13T04:15:24;11.00;99.90
19898;DHT22;10111;50.814;4.572;2023-05-13T04:17:50;11.00;99.90
19898;DHT22;10111;50.814;4.572;2023-05-13T04:20:16;11.00;99.90
19898;DHT22;10111;50.814;4.572;2023-05-13T04:22:42;11.00;99.90
19898;DHT22;10111;50.814;4.572;2023-05-13T04:25:08;11.00;99.90
19898;DHT22;10111;50.814;4.572;2023-05-13T04:27:34;11.00;99.90
19898;DHT22;10111;50.814;4.572;2023-05-13T04:29:59;11.00;99.90
19898;DHT22;10111;50.814;4.572;2023-05-13T04:32:25;11.00;99.90
19898;DHT22;10111;50.814;4.572;2023-05-13T04:34:52;11.00;99.90
19898;DHT22;10111;50.814;4.572;2023-05-13T04:37:17;11.00;99.90
19898;DHT22;10111;50.814;4.572;2023-05-13T04:39:47;11.00;99.90
19898;DHT22;10111;50.814;4.572;2023-05-13T04:42:13;11.00;99.90
19898;DHT22;10111;50.814;4.572;2023-05-13T04:44:39;11.00;99.90
19898;DHT22;10111;50.814;4.572;2023-05-13T04:47:05;11.00;99.90
19898;DHT22;10111;50.814;4.572;2023-05-13T04:49:31;11.10;99.90
19898;DHT22;10111;50.814;4.572;2023-05-13T04:51:57;11.10;99.90
19898;DHT22;10111;50.814;4.572;2023-05-13T04:54:22;11.20;99.90
19898;DHT22;10111;50.814;4.572;2023-05-13T04:56:48;11.30;99.90
19898;DHT22;10111;50.814;4.572;2023-05-13T04:59:14;11.30;99.90
19898;DHT22;10111;50.814;4.572;2023-05-13T05:01:39;11.40;99.90
19898;DHT22;10111;50.814;4.572;2023-05-13T05:04:05;11.50;99.90
19898;DHT22;10111;50.814;4.572;2023-05-13T05:06:31;11.60;99.90
19898;DHT22;10111;50.814;4.572;2023-05-13T05:08:57;11.80;99.90
19898;DHT22;10111;50.814;4.572;2023-05-13T05:11:23;11.90;99.90
19898;DHT22;10111;50.814;4.572;2023-05-13T05:13:49;12.10;99.90
19898;DHT22;10111;50.814;4.572;2023-05-13T05:16:15;12.30;99.90
19898;DHT22;10111;50.814;4.572;2023-05-13T05:18:40;12.50;99.90
19898;DHT22;10111;50.814;4.572;2023-05-13T05:21:08;12.80;99.90
19898;DHT22;10111;50.814;4.572;2023-05-13T05:23:33;13.00;99.90
19898;DHT22;10111;50.814;4.572;2023-05-13T05:25:59;13.30;99.90
19898;DHT22;10111;50.814;4.572;2023-05-13T05:28:25;13.50;99.90
19898;DHT22;10111;50.814;4.572;2023-05-13T05:30:52;13.80;99.90
19898;DHT22;10111;50.814;4.572;2023-05-13T05:33:18;14.00;99.90
19898;DHT22;10111;50.814;4.572;2023-05-13T05:35:44;14.30;99.90
19898;DHT22;10111;50.814;4.572;2023-05-13T05:38:10;14.60;99.90
19898;DHT22;10111;50.814;4.572;2023-05-13T05:40:43;14.70;99.90
19898;DHT22;10111;50.814;4.572;2023-05-13T05:43:10;15.00;99.90
19898;DHT22;10111;50.814;4.572;2023-05-13T05:45:36;15.20;99.90
19898;DHT22;10111;50.814;4.572;2023-05-13T05:48:02;15.30;99.90
19898;DHT22;10111;50.814;4.572;2023-05-13T05:50:28;15.40;99.90
19898;DHT22;10111;50.814;4.572;2023-05-13T05:52:54;15.30;99.90
19898;DHT22;10111;50.814;4.572;2023-05-13T05:55:20;15.40;99.90
19898;DHT22;10111;50.814;4.572;2023-05-13T05:57:46;15.30;99.90
19898;DHT22;10111;50.814;4.572;2023-05-13T06:00:12;15.30;99.90
19898;DHT22;10111;50.814;4.572;2023-05-13T06:02:38;15.40;99.90
19898;DHT22;10111;50.814;4.572;2023-05-13T06:05:04;15.60;99.90
19898;DHT22;10111;50.814;4.572;2023-05-13T06:07:30;15.70;99.90
19898;DHT22;10111;50.814;4.572;2023-05-13T06:09:56;15.60;99.90
19898;DHT22;10111;50.814;4.572;2023-05-13T06:12:21;15.80;99.90
19898;DHT22;10111;50.814;4.572;2023-05-13T06:14:47;16.10;99.90
19898;DHT22;10111;50.814;4.572;2023-05-13T06:17:13;16.20;99.90
19898;DHT22;10111;50.814;4.572;2023-05-13T06:19:40;16.20;99.90
19898;DHT22;10111;50.814;4.572;2023-05-13T06:22:09;16.10;99.90
19898;DHT22;10111;50.814;4.572;2023-05-13T06:24:34;16.30;99.90
19898;DHT22;10111;50.814;4.572;2023-05-13T06:27:00;16.30;99.90
19898;DHT22;10111;50.814;4.572;2023-05-13T06:29:27;16.20;99.90
19898;DHT22;10111;50.814;4.572;2023-05-13T06:31:52;16.20;99.90
19898;DHT22;10111;50.814;4.572;2023-05-13T06:34:18;16.20;99.90
19898;DHT22;10111;50.814;4.572;2023-05-13T06:36:44;16.20;99.90
19898;DHT22;10111;50.814;4.572;2023-05-13T06:39:11;16.40;99.90
19898;DHT22;10111;50.814;4.572;2023-05-13T06:41:38;16.50;99.90
19898;DHT22;10111;50.814;4.572;2023-05-13T06:44:04;16.50;99.90
19898;DHT22;10111;50.814;4.572;2023-05-13T06:46:31;16.70;99.90
19898;DHT22;10111;50.814;4.572;2023-05-13T06:48:57;16.90;99.90
19898;DHT22;10111;50.814;4.572;2023-05-13T06:51:24;16.90;99.90
19898;DHT22;10111;50.814;4.572;2023-05-13T06:53:52;17.10;99.90
19898;DHT22;10111;50.814;4.572;2023-05-13T06:56:18;17.10;99.90
19898;DHT22;10111;50.814;4.572;2023-05-13T06:58:44;17.00;99.90
19898;DHT22;10111;50.814;4.572;2023-05-13T07:01:10;17.00;99.90
19898;DHT22;10111;50.814;4.572;2023-05-13T07:03:36;17.00;99.90
19898;DHT22;10111;50.814;4.572;2023-05-13T07:06:02;17.00;99.90
19898;DHT22;10111;50.814;4.572;2023-05-13T07:08:28;17.20;99.90
19898;DHT22;10111;50.814;4.572;2023-05-13T07:10:54;17.30;99.90
19898;DHT22;10111;50.814;4.572;2023-05-13T07:13:20;17.30;99.90
19898;DHT22;10111;50.814;4.572;2023-05-13T07:15:47;17.50;99.90
19898;DHT22;10111;50.814;4.572;2023-05-13T07:18:12;17.80;99.90
19898;DHT22;10111;50.814;4.572;2023-05-13T07:20:38;18.00;99.90
19898;DHT22;10111;50.814;4.572;2023-05-13T07:23:04;17.90;99.90
19898;DHT22;10111;50.814;4.572;2023-05-13T07:25:30;17.70;99.90
19898;DHT22;10111;50.814;4.572;2023-05-13T07:27:55;17.60;99.90
19898;DHT22;10111;50.814;4.572;2023-05-13T07:30:21;17.70;99.90
19898;DHT22;10111;50.814;4.572;2023-05-13T07:32:47;17.70;99.90
19898;DHT22;10111;50.814;4.572;2023-05-13T07:35:12;17.70;99.90
19898;DHT22;10111;50.814;4.572;2023-05-13T07:37:38;18.00;99.90
19898;DHT22;10111;50.814;4.572;2023-05-13T07:40:05;18.30;99.90
19898;DHT22;10111;50.814;4.572;2023-05-13T07:42:31;18.40;99.90
19898;DHT22;10111;50.814;4.572;2023-05-13T07:44:57;18.30;99.90
19898;DHT22;10111;50.814;4.572;2023-05-13T07:47:23;18.20;99.90
19898;DHT22;10111;50.814;4.572;2023-05-13T07:49:49;18.50;99.90
19898;DHT22;10111;50.814;4.572;2023-05-13T07:52:15;18.50;99.90
19898;DHT22;10111;50.814;4.572;2023-05-13T07:54:41;18.40;99.90
19898;DHT22;10111;50.814;4.572;2023-05-13T07:57:06;18.60;99.90
19898;DHT22;10111;50.814;4.572;2023-05-13T07:59:32;18.90;99.90
19898;DHT22;10111;50.814;4.572;2023-05-13T08:01:58;18.80;99.90
19898;DHT22;10111;50.814;4.572;2023-05-13T08:04:23;18.70;99.90
19898;DHT22;10111;50.814;4.572;2023-05-13T08:06:49;18.80;99.90
19898;DHT22;10111;50.814;4.572;2023-05-13T08:09:15;19.00;99.90
19898;DHT22;10111;50.814;4.572;2023-05-13T08:11:40;19.30;99.90
19898;DHT22;10111;50.814;4.572;2023-05-13T08:14:06;19.30;99.90
19898;DHT22;10111;50.814;4.572;2023-05-13T08:16:34;19.20;99.90
19898;DHT22;10111;50.814;4.572;2023-05-13T08:19:03;19.20;99.90
19898;DHT22;10111;50.814;4.572;2023-05-13T08:21:29;19.20;99.90
19898;DHT22;10111;50.814;4.572;2023-05-13T08:23:56;19.10;99.90
19898;DHT22;10111;50.814;4.572;2023-05-13T08:26:21;19.30;99.90
19898;DHT22;10111;50.814;4.572;2023-05-13T08:28:47;19.60;99.90
19898;DHT22;10111;50.814;4.572;2023-05-13T08:31:13;19.90;99.90
19898;DHT22;10111;50.814;4.572;2023-05-13T08:33:39;19.80;99.90
19898;DHT22;10111;50.814;4.572;2023-05-13T08:36:10;19.80;99.90
19898;DHT22;10111;50.814;4.572;2023-05-13T08:38:36;19.70;99.90
19898;DHT22;10111;50.814;4.572;2023-05-13T08:41:05;19.60;99.90
19898;DHT22;10111;50.814;4.572;2023-05-13T08:43:32;19.70;99.90
19898;DHT22;10111;50.814;4.572;2023-05-13T08:46:02;19.50;99.90
19898;DHT22;10111;50.814;4.572;2023-05-13T08:48:29;19.70;99.90
19898;DHT22;10111;50.814;4.572;2023-05-13T08:50:56;19.70;99.90
19898;DHT22;10111;50.814;4.572;2023-05-13T08:53:24;19.70;99.90
19898;DHT22;10111;50.814;4.572;2023-05-13T08:55:50;19.70;99.90
19898;DHT22;10111;50.814;4.572;2023-05-13T08:58:16;19.70;99.90
19898;DHT22;10111;50.814;4.572;2023-05-13T09:00:42;19.90;99.90
19898;DHT22;10111;50.814;4.572;2023-05-13T09:03:08;20.10;99.90
19898;DHT22;10111;50.814;4.572;2023-05-13T09:05:34;20.00;99.90
19898;DHT22;10111;50.814;4.572;2023-05-13T09:08:06;20.30;99.90
19898;DHT22;10111;50.814;4.572;2023-05-13T09:10:32;20.30;99.90
19898;DHT22;10111;50.814;4.572;2023-05-13T09:12:58;20.30;99.90
19898;DHT22;10111;50.814;4.572;2023-05-13T09:15:26;20.10;99.90
19898;DHT22;10111;50.814;4.572;2023-05-13T09:18:05;20.40;99.90
19898;DHT22;10111;50.814;4.572;2023-05-13T09:20:31;20.40;99.90
19898;DHT22;10111;50.814;4.572;2023-05-13T09:23:02;20.60;99.90
19898;DHT22;10111;50.814;4.572;2023-05-13T09:25:29;20.90;99.90
19898;DHT22;10111;50.814;4.572;2023-05-13T09:28:03;21.10;99.90
19898;DHT22;10111;50.814;4.572;2023-05-13T09:30:33;20.90;99.90
19898;DHT22;10111;50.814;4.572;2023-05-13T09:33:10;20.70;99.90
19898;DHT22;10111;50.814;4.572;2023-05-13T09:38:25;20.60;99.90
19898;DHT22;10111;50.814;4.572;2023-05-13T09:40:56;20.60;99.90
19898;DHT22;10111;50.814;4.572;2023-05-13T09:43:23;20.50;99.90
19898;DHT22;10111;50.814;4.572;2023-05-13T09:45:58;20.50;99.90
19898;DHT22;10111;50.814;4.572;2023-05-13T09:48:26;20.30;99.90
19898;DHT22;10111;50.814;4.572;2023-05-13T09:50:52;20.30;99.90
19898;DHT22;10111;50.814;4.572;2023-05-13T09:53:18;20.30;99.90
19898;DHT22;10111;50.814;4.572;2023-05-13T09:55:48;20.40;99.90
19898;DHT22;10111;50.814;4.572;2023-05-13T09:58:14;20.40;99.90
19898;DHT22;10111;50.814;4.572;2023-05-13T10:00:41;20.50;99.90
19898;DHT22;10111;50.814;4.572;2023-05-13T10:03:09;20.80;99.90
19898;DHT22;10111;50.814;4.572;2023-05-13T10:05:35;20.70;99.90
19898;DHT22;10111;50.814;4.572;2023-05-13T10:08:02;20.50;99.90
19898;DHT22;10111;50.814;4.572;2023-05-13T10:10:31;20.40;99.90
19898;DHT22;10111;50.814;4.572;2023-05-13T10:13:03;20.40;99.90
19898;DHT22;10111;50.814;4.572;2023-05-13T10:15:30;20.50;99.90
19898;DHT22;10111;50.814;4.572;2023-05-13T10:17:56;20.60;99.90
19898;DHT22;10111;50.814;4.572;2023-05-13T10:20:24;20.60;99.90
19898;DHT22;10111;50.814;4.572;2023-05-13T10:22:51;20.50;99.90
19898;DHT22;10111;50.814;4.572;2023-05-13T10:25:18;20.50;99.90
19898;DHT22;10111;50.814;4.572;2023-05-13T10:27:44;20.50;99.90
19898;DHT22;10111;50.814;4.572;2023-05-13T10:30:10;20.50;99.90
19898;DHT22;10111;50.814;4.572;2023-05-13T10:32:37;20.60;99.90
19898;DHT22;10111;50.814;4.572;2023-05-13T10:35:17;20.60;99.90
19898;DHT22;10111;50.814;4.572;2023-05-13T10:38:04;20.60;99.90
19898;DHT22;10111;50.814;4.572;2023-05-13T10:43:34;20.80;99.90
19898;DHT22;10111;50.814;4.572;2023-05-13T10:46:01;20.70;99.90
19898;DHT22;10111;50.814;4.572;2023-05-13T10:48:39;20.60;99.90
19898;DHT22;10111;50.814;4.572;2023-05-13T10:51:06;20.40;99.90
19898;DHT22;10111;50.814;4.572;2023-05-13T10:53:46;20.60;99.90
19898;DHT22;10111;50.814;4.572;2023-05-13T10:56:13;20.70;99.90
19898;DHT22;10111;50.814;4.572;2023-05-13T10:58:39;20.60;99.90
19898;DHT22;10111;50.814;4.572;2023-05-13T11:01:25;20.50;99.90
19898;DHT22;10111;50.814;4.572;2023-05-13T11:03:53;20.60;99.90
19898;DHT22;10111;50.814;4.572;2023-05-13T11:06:39;20.60;99.90
19898;DHT22;10111;50.814;4.572;2023-05-13T11:11:49;20.70;99.90
19898;DHT22;10111;50.814;4.572;2023-05-13T11:14:21;20.80;99.90
19898;DHT22;10111;50.814;4.572;2023-05-13T11:19:31;20.90;99.90
19898;DHT22;10111;50.814;4.572;2023-05-13T11:24:29;21.00;99.90
19898;DHT22;10111;50.814;4.572;2023-05-13T11:26:56;20.90;99.90
19898;DHT22;10111;50.814;4.572;2023-05-13T11:29:28;21.00;99.90
19898;DHT22;10111;50.814;4.572;2023-05-13T11:31:54;21.00;99.90
19898;DHT22;10111;50.814;4.572;2023-05-13T11:34:22;21.10;99.90
19898;DHT22;10111;50.814;4.572;2023-05-13T11:37:08;21.20;99.90
19898;DHT22;10111;50.814;4.572;2023-05-13T11:39:37;21.30;99.90
19898;DHT22;10111;50.814;4.572;2023-05-13T11:42:06;21.20;99.90
19898;DHT22;10111;50.814;4.572;2023-05-13T11:44:33;21.30;99.90
19898;DHT22;10111;50.814;4.572;2023-05-13T11:47:03;21.30;99.90
19898;DHT22;10111;50.814;4.572;2023-05-13T11:49:40;21.50;99.90
19898;DHT22;10111;50.814;4.572;2023-05-13T11:52:15;21.70;99.90
19898;DHT22;10111;50.814;4.572;2023-05-13T11:57:29;21.60;99.90
19898;DHT22;10111;50.814;4.572;2023-05-13T12:00:05;21.60;99.90
19898;DHT22;10111;50.814;4.572;2023-05-13T12:02:37;21.20;99.90
19898;DHT22;10111;50.814;4.572;2023-05-13T12:05:06;21.10;99.90
19898;DHT22;10111;50.814;4.572;2023-05-13T12:07:33;20.90;99.90
19898;DHT22;10111;50.814;4.572;2023-05-13T12:10:00;20.90;99.90
19898;DHT22;10111;50.814;4.572;2023-05-13T12:12:28;21.10;99.90
19898;DHT22;10111;50.814;4.572;2023-05-13T12:14:57;21.30;99.90
19898;DHT22;10111;50.814;4.572;2023-05-13T12:17:24;21.50;99.90
19898;DHT22;10111;50.814;4.572;2023-05-13T12:28:15;21.70;99.90
19898;DHT22;10111;50.814;4.572;2023-05-13T12:33:22;21.60;99.90
19898;DHT22;10111;50.814;4.572;2023-05-13T12:35:52;21.50;99.90
19898;DHT22;10111;50.814;4.572;2023-05-13T12:38:22;21.50;99.90
19898;DHT22;10111;50.814;4.572;2023-05-13T12:40:50;21.70;99.90
19898;DHT22;10111;50.814;4.572;2023-05-13T12:43:17;21.90;99.90
19898;DHT22;10111;50.814;4.572;2023-05-13T12:45:44;22.00;99.90
19898;DHT22;10111;50.814;4.572;2023-05-13T12:48:10;21.90;99.90
19898;DHT22;10111;50.814;4.572;2023-05-13T12:50:36;21.70;99.90
19898;DHT22;10111;50.814;4.572;2023-05-13T12:53:02;21.70;99.90
19898;DHT22;10111;50.814;4.572;2023-05-13T12:55:28;21.70;99.90
19898;DHT22;10111;50.814;4.572;2023-05-13T12:58:00;21.70;99.90
19898;DHT22;10111;50.814;4.572;2023-05-13T13:00:27;21.70;99.90
19898;DHT22;10111;50.814;4.572;2023-05-13T13:02:54;21.70;99.90
19898;DHT22;10111;50.814;4.572;2023-05-13T13:05:23;21.60;99.90
19898;DHT22;10111;50.814;4.572;2023-05-13T13:07:49;21.10;99.90
19898;DHT22;10111;50.814;4.572;2023-05-13T13:10:16;21.10;99.90
19898;DHT22;10111;50.814;4.572;2023-05-13T13:12:42;21.30;99.90
19898;DHT22;10111;50.814;4.572;2023-05-13T13:15:09;21.50;99.90
19898;DHT22;10111;50.814;4.572;2023-05-13T13:17:36;21.60;99.90
19898;DHT22;10111;50.814;4.572;2023-05-13T13:20:02;21.70;99.90
19898;DHT22;10111;50.814;4.572;2023-05-13T13:22:29;21.90;99.90
19898;DHT22;10111;50.814;4.572;2023-05-13T13:24:55;21.90;99.90
19898;DHT22;10111;50.814;4.572;2023-05-13T13:27:20;21.80;99.90
19898;DHT22;10111;50.814;4.572;2023-05-13T13:29:46;21.80;99.90
19898;DHT22;10111;50.814;4.572;2023-05-13T13:32:12;21.90;99.90
19898;DHT22;10111;50.814;4.572;2023-05-13T13:34:38;21.90;99.90
19898;DHT22;10111;50.814;4.572;2023-05-13T13:37:04;21.90;99.90
19898;DHT22;10111;50.814;4.572;2023-05-13T13:39:30;21.90;99.90
19898;DHT22;10111;50.814;4.572;2023-05-13T13:41:55;21.90;99.90
19898;DHT22;10111;50.814;4.572;2023-05-13T13:44:21;21.90;99.90
19898;DHT22;10111;50.814;4.572;2023-05-13T13:46:47;21.90;99.90
19898;DHT22;10111;50.814;4.572;2023-05-13T13:49:13;22.00;99.90
19898;DHT22;10111;50.814;4.572;2023-05-13T13:51:39;21.80;99.90
19898;DHT22;10111;50.814;4.572;2023-05-13T13:54:05;21.70;99.90
19898;DHT22;10111;50.814;4.572;2023-05-13T13:56:31;21.60;99.90
19898;DHT22;10111;50.814;4.572;2023-05-13T13:58:57;21.70;99.90
19898;DHT22;10111;50.814;4.572;2023-05-13T14:01:22;21.80;99.90
19898;DHT22;10111;50.814;4.572;2023-05-13T14:03:49;21.90;99.90
19898;DHT22;10111;50.814;4.572;2023-05-13T14:06:15;22.00;99.90
19898;DHT22;10111;50.814;4.572;2023-05-13T14:08:41;22.00;99.90
19898;DHT22;10111;50.814;4.572;2023-05-13T14:11:07;22.10;99.90
19898;DHT22;10111;50.814;4.572;2023-05-13T14:13:32;22.20;99.90
19898;DHT22;10111;50.814;4.572;2023-05-13T14:15:58;22.10;99.90
19898;DHT22;10111;50.814;4.572;2023-05-13T14:18:24;22.00;99.90
19898;DHT22;10111;50.814;4.572;2023-05-13T14:20:49;22.10;99.90
19898;DHT22;10111;50.814;4.572;2023-05-13T14:23:16;22.10;99.90
19898;DHT22;10111;50.814;4.572;2023-05-13T14:25:42;21.90;99.90
19898;DHT22;10111;50.814;4.572;2023-05-13T14:28:08;21.80;99.90
19898;DHT22;10111;50.814;4.572;2023-05-13T14:30:34;21.90;99.90
19898;DHT22;10111;50.814;4.572;2023-05-13T14:33:00;21.80;99.90
19898;DHT22;10111;50.814;4.572;2023-05-13T14:35:25;21.90;99.90
19898;DHT22;10111;50.814;4.572;2023-05-13T14:37:51;21.90;99.90
19898;DHT22;10111;50.814;4.572;2023-05-13T14:40:17;22.00;99.90
19898;DHT22;10111;50.814;4.572;2023-05-13T14:42:42;22.00;99.90
19898;DHT22;10111;50.814;4.572;2023-05-13T14:45:08;22.00;99.90
19898;DHT22;10111;50.814;4.572;2023-05-13T14:47:34;22.00;99.90
19898;DHT22;10111;50.814;4.572;2023-05-13T14:50:00;22.10;99.90
19898;DHT22;10111;50.814;4.572;2023-05-13T14:52:25;22.10;99.90
19898;DHT22;10111;50.814;4.572;2023-05-13T14:54:52;22.00;99.90
19898;DHT22;10111;50.814;4.572;2023-05-13T14:57:18;22.00;99.90
19898;DHT22;10111;50.814;4.572;2023-05-13T14:59:44;22.00;99.90
19898;DHT22;10111;50.814;4.572;2023-05-13T15:02:09;22.00;99.90
19898;DHT22;10111;50.814;4.572;2023-05-13T15:04:38;22.00;99.90
19898;DHT22;10111;50.814;4.572;2023-05-13T15:07:04;22.00;99.90
19898;DHT22;10111;50.814;4.572;2023-05-13T15:09:31;22.10;99.90
19898;DHT22;10111;50.814;4.572;2023-05-13T15:11:56;22.20;99.90
19898;DHT22;10111;50.814;4.572;2023-05-13T15:14:22;22.10;99.90
19898;DHT22;10111;50.814;4.572;2023-05-13T15:16:50;22.20;99.90
19898;DHT22;10111;50.814;4.572;2023-05-13T15:19:17;22.30;99.90
19898;DHT22;10111;50.814;4.572;2023-05-13T15:21:42;22.20;99.90
19898;DHT22;10111;50.814;4.572;2023-05-13T15:24:08;22.20;99.90
19898;DHT22;10111;50.814;4.572;2023-05-13T15:26:33;22.10;99.90
19898;DHT22;10111;50.814;4.572;2023-05-13T15:28:59;22.00;99.90
19898;DHT22;10111;50.814;4.572;2023-05-13T15:31:25;22.10;99.90
19898;DHT22;10111;50.814;4.572;2023-05-13T15:33:50;22.00;99.90
19898;DHT22;10111;50.814;4.572;2023-05-13T15:36:16;21.90;99.90
19898;DHT22;10111;50.814;4.572;2023-05-13T15:38:42;21.90;99.90
19898;DHT22;10111;50.814;4.572;2023-05-13T15:41:08;21.90;99.90
19898;DHT22;10111;50.814;4.572;2023-05-13T15:43:33;21.90;99.90
19898;DHT22;10111;50.814;4.572;2023-05-13T15:45:59;22.00;99.90
19898;DHT22;10111;50.814;4.572;2023-05-13T15:48:25;22.00;99.90
19898;DHT22;10111;50.814;4.572;2023-05-13T15:50:51;22.00;99.90
19898;DHT22;10111;50.814;4.572;2023-05-13T15:53:16;22.20;99.90
19898;DHT22;10111;50.814;4.572;2023-05-13T15:55:42;22.20;99.90
19898;DHT22;10111;50.814;4.572;2023-05-13T15:58:07;22.10;99.90